createdAt,value
2018-03-24T00:00:45.909Z,11.30
2018-03-24T00:03:14.586Z,11.63
2018-03-24T00:05:43.350Z,9.02
2018-03-24T00:08:11.964Z,11.88
2018-03-24T00:10:40.689Z,10.52
2018-03-24T00:13:09.314Z,8.68
2018-03-24T00:15:38.031Z,9.68
2018-03-24T00:18:06.753Z,9.10
2018-03-24T00:20:35.476Z,10.95
2018-03-24T00:23:04.322Z,7.32
2018-03-24T00:25:32.935Z,9.73
2018-03-24T00:28:01.643Z,9.00
2018-03-24T00:30:30.363Z,9.68
2018-03-24T00:32:59.085Z,10.18
2018-03-24T00:35:27.678Z,10.82
2018-03-24T00:37:56.864Z,9.65
2018-03-24T00:40:25.566Z,9.80
2018-03-24T00:42:54.274Z,9.05
2018-03-24T00:45:22.894Z,9.55
2018-03-24T00:47:51.530Z,8.43
2018-03-24T00:50:20.240Z,10.20
2018-03-24T00:52:48.839Z,10.73
2018-03-24T00:55:17.481Z,10.18
2018-03-24T00:57:46.204Z,9.82
2018-03-24T01:00:14.835Z,13.10
2018-03-24T01:02:43.751Z,12.55
2018-03-24T01:05:13.081Z,13.80
2018-03-24T01:07:41.794Z,14.32
2018-03-24T01:10:11.097Z,14.38
2018-03-24T01:12:40.343Z,13.38
2018-03-24T01:15:09.063Z,15.43
2018-03-24T01:17:37.785Z,12.65
2018-03-24T01:20:06.410Z,13.10
2018-03-24T01:22:35.105Z,13.82
2018-03-24T01:25:03.753Z,11.98
2018-03-24T01:27:32.473Z,11.68
2018-03-24T01:30:01.095Z,11.70
2018-03-24T01:32:29.733Z,9.18
2018-03-24T01:34:58.287Z,11.45
2018-03-24T01:37:26.961Z,10.98
2018-03-24T01:39:55.584Z,12.75
2018-03-24T01:42:24.155Z,12.10
2018-03-24T01:44:52.845Z,13.40
2018-03-24T01:47:21.423Z,19.70
2018-03-24T01:49:50.170Z,22.62
2018-03-24T01:52:18.787Z,22.95
2018-03-24T01:54:47.410Z,23.40
2018-03-24T01:57:16.030Z,23.17
2018-03-24T01:59:44.825Z,23.38
2018-03-24T02:02:13.548Z,22.15
2018-03-24T02:04:42.295Z,21.83
2018-03-24T02:07:10.915Z,24.50
2018-03-24T02:09:39.945Z,23.17
2018-03-24T02:12:08.571Z,21.15
2018-03-24T02:14:37.276Z,24.25
2018-03-24T02:17:05.833Z,21.50
2018-03-24T02:19:34.547Z,23.75
2018-03-24T02:22:03.221Z,24.58
2018-03-24T02:24:32.071Z,23.95
2018-03-24T02:27:00.793Z,23.40
2018-03-24T02:29:29.429Z,25.15
2018-03-24T02:31:57.986Z,23.70
2018-03-24T02:34:26.760Z,22.90
2018-03-24T02:36:55.581Z,24.92
2018-03-24T02:39:24.303Z,24.50
2018-03-24T02:41:53.584Z,21.77
2018-03-24T02:44:22.349Z,16.08
2018-03-24T02:46:50.953Z,14.38
2018-03-24T02:49:19.698Z,13.65
2018-03-24T02:51:48.393Z,12.55
2018-03-24T02:54:16.930Z,10.90
2018-03-24T02:56:45.727Z,12.48
2018-03-24T02:59:14.481Z,10.98
2018-03-24T03:01:43.100Z,11.70
2018-03-24T03:04:11.779Z,10.90
2018-03-24T03:06:40.548Z,10.95
2018-03-24T03:09:09.178Z,10.80
2018-03-24T03:11:37.891Z,9.00
2018-03-24T03:14:06.564Z,10.05
2018-03-24T03:16:35.534Z,11.15
2018-03-24T03:19:04.157Z,11.43
2018-03-24T03:21:53.059Z,13.80
2018-03-24T03:24:21.668Z,11.35
2018-03-24T03:26:50.266Z,10.23
2018-03-24T03:29:19.011Z,9.45
2018-03-24T03:31:53.455Z,11.25
2018-03-24T03:34:22.278Z,11.35
2018-03-24T03:36:50.999Z,10.57
2018-03-24T03:39:21.026Z,9.98
2018-03-24T03:41:49.750Z,9.90
2018-03-24T03:44:18.369Z,9.43
2018-03-24T03:46:46.992Z,9.60
2018-03-24T03:49:15.713Z,9.32
2018-03-24T03:51:44.435Z,8.65
2018-03-24T03:54:13.155Z,9.07
2018-03-24T03:56:41.734Z,8.85
2018-03-24T03:59:10.307Z,8.02
2018-03-24T04:01:39.021Z,8.50
2018-03-24T04:04:07.670Z,8.68
2018-03-24T04:06:36.465Z,8.40
2018-03-24T04:09:05.250Z,7.78
2018-03-24T04:11:35.045Z,7.32
2018-03-24T04:14:03.739Z,8.95
2018-03-24T04:16:32.454Z,8.50
2018-03-24T04:19:01.178Z,8.35
2018-03-24T04:21:29.813Z,9.23
2018-03-24T04:23:58.438Z,8.60
2018-03-24T04:26:27.069Z,9.02
2018-03-24T04:28:56.565Z,7.87
2018-03-24T04:31:25.491Z,9.48
2018-03-24T04:33:54.591Z,7.18
2018-03-24T04:36:23.333Z,9.07
2018-03-24T04:38:52.057Z,8.23
2018-03-24T04:41:20.778Z,9.63
2018-03-24T04:43:49.363Z,8.30
2018-03-24T04:46:18.032Z,7.78
2018-03-24T04:48:46.660Z,8.10
2018-03-24T04:51:15.309Z,9.23
2018-03-24T04:53:44.670Z,9.23
2018-03-24T04:56:13.331Z,9.15
2018-03-24T04:58:42.030Z,9.35
2018-03-24T05:01:10.696Z,8.48
2018-03-24T05:03:39.395Z,10.20
2018-03-24T05:06:08.099Z,9.73
2018-03-24T05:08:36.819Z,9.35
2018-03-24T05:11:05.541Z,8.30
2018-03-24T05:13:34.087Z,9.88
2018-03-24T05:16:02.686Z,10.23
2018-03-24T05:18:31.304Z,11.02
2018-03-24T05:21:00.028Z,18.00
2018-03-24T05:23:28.750Z,10.27
2018-03-24T05:25:57.479Z,15.20
2018-03-24T05:28:26.192Z,17.15
2018-03-24T05:30:54.918Z,16.83
2018-03-24T05:33:23.550Z,15.07
2018-03-24T05:35:52.156Z,18.98
2018-03-24T05:38:21.483Z,20.88
2018-03-24T05:40:50.209Z,19.52
2018-03-24T05:43:18.927Z,21.98
2018-03-24T05:45:47.654Z,21.00
2018-03-24T05:48:16.370Z,16.45
2018-03-24T05:50:45.093Z,11.98
2018-03-24T05:53:13.725Z,14.30
2018-03-24T05:55:43.307Z,16.30
2018-03-24T05:58:12.059Z,12.25
2018-03-24T06:00:40.784Z,10.10
2018-03-24T06:03:10.095Z,10.27
2018-03-24T06:05:38.827Z,11.12
2018-03-24T06:08:08.058Z,10.93
2018-03-24T06:10:36.732Z,10.65
2018-03-24T06:13:05.396Z,11.02
2018-03-24T06:15:34.060Z,10.90
2018-03-24T06:18:02.632Z,10.25
2018-03-24T06:20:31.461Z,9.98
2018-03-24T06:23:00.190Z,10.68
2018-03-24T06:25:29.006Z,10.23
2018-03-24T06:27:57.728Z,7.53
2018-03-24T06:30:26.856Z,8.73
2018-03-24T06:32:55.673Z,7.55
2018-03-24T06:35:24.898Z,9.15
2018-03-24T06:37:53.684Z,8.98
2018-03-24T06:40:22.340Z,9.00
2018-03-24T06:42:51.163Z,9.70
2018-03-24T06:45:19.708Z,13.15
2018-03-24T06:47:49.409Z,12.23
2018-03-24T06:50:18.058Z,9.20
2018-03-24T06:52:46.732Z,8.23
2018-03-24T06:55:15.379Z,7.35
2018-03-24T06:57:44.105Z,7.70
2018-03-24T07:00:12.824Z,9.50
2018-03-24T07:02:41.641Z,8.02
2018-03-24T07:05:10.363Z,10.05
2018-03-24T07:07:38.981Z,10.32
2018-03-24T07:10:08.232Z,10.98
2018-03-24T07:12:36.828Z,11.38
2018-03-24T07:15:05.551Z,10.57
2018-03-24T07:17:34.273Z,11.18
2018-03-24T07:20:02.893Z,13.38
2018-03-24T07:22:31.583Z,15.20
2018-03-24T07:25:00.137Z,14.43
2018-03-24T07:27:28.859Z,12.73
2018-03-24T07:29:57.487Z,12.35
2018-03-24T07:32:26.100Z,13.52
2018-03-24T07:34:55.288Z,11.07
2018-03-24T07:37:24.051Z,10.70
2018-03-24T07:39:52.768Z,12.48
2018-03-24T07:42:21.490Z,17.15
2018-03-24T07:44:50.120Z,13.30
2018-03-24T07:47:18.738Z,13.65
2018-03-24T07:49:47.456Z,13.05
2018-03-24T07:52:16.152Z,13.07
2018-03-24T07:54:45.602Z,10.38
2018-03-24T07:57:14.285Z,13.18
2018-03-24T07:59:46.960Z,14.17
2018-03-24T08:02:15.637Z,28.90
2018-03-24T08:04:44.250Z,16.17
2018-03-24T08:07:12.937Z,15.60
2018-03-24T08:09:41.628Z,13.93
2018-03-24T08:12:10.234Z,14.73
2018-03-24T08:14:38.993Z,14.67
2018-03-24T08:17:09.518Z,16.30
2018-03-24T08:19:38.242Z,20.40
2018-03-24T08:22:06.867Z,15.90
2018-03-24T08:24:35.573Z,15.17
2018-03-24T08:27:04.411Z,14.90
2018-03-24T08:29:33.127Z,17.47
2018-03-24T08:32:01.851Z,17.60
2018-03-24T08:34:30.445Z,19.33
2018-03-24T08:36:59.152Z,19.77
2018-03-24T08:39:27.915Z,14.13
2018-03-24T08:41:56.638Z,13.97
2018-03-24T08:44:25.223Z,12.40
2018-03-24T08:46:53.880Z,13.30
2018-03-24T08:49:22.606Z,16.83
2018-03-24T08:51:51.302Z,22.80
2018-03-24T08:54:20.067Z,20.50
2018-03-24T08:56:48.709Z,19.53
2018-03-24T08:59:17.496Z,23.37
2018-03-24T09:01:46.219Z,22.90
2018-03-24T09:04:14.937Z,19.07
2018-03-24T09:06:43.655Z,19.93
2018-03-24T09:09:12.284Z,19.27
2018-03-24T09:11:40.936Z,19.87
2018-03-24T09:14:09.626Z,19.50
2018-03-24T09:16:38.342Z,18.33
2018-03-24T09:19:07.065Z,21.87
2018-03-24T09:21:35.785Z,24.23
2018-03-24T09:24:04.531Z,18.13
2018-03-24T09:26:33.232Z,18.23
2018-03-24T09:29:01.951Z,19.57
2018-03-24T09:31:30.776Z,19.13
2018-03-24T09:33:59.499Z,15.20
2018-03-24T09:36:28.141Z,15.87
2018-03-24T09:38:56.863Z,16.53
2018-03-24T09:41:25.481Z,24.10
2018-03-24T09:43:54.098Z,14.63
2018-03-24T09:46:22.805Z,14.30
2018-03-24T09:48:51.437Z,16.37
2018-03-24T09:51:20.170Z,15.93
2018-03-24T09:53:48.872Z,16.73
2018-03-24T09:56:17.694Z,18.83
2018-03-24T09:58:46.414Z,18.10
2018-03-24T10:01:15.137Z,18.37
2018-03-24T10:03:43.857Z,17.13
2018-03-24T10:06:12.683Z,16.43
2018-03-24T10:08:41.408Z,14.73
2018-03-24T10:11:10.926Z,15.77
2018-03-24T10:13:41.228Z,16.97
2018-03-24T10:16:10.580Z,17.17
2018-03-24T10:18:39.197Z,17.10
2018-03-24T10:24:27.497Z,11.33
2018-03-24T10:26:56.245Z,11.53
2018-03-24T10:29:24.965Z,12.70
2018-03-24T10:31:53.532Z,12.63
2018-03-24T10:34:22.311Z,11.10
2018-03-24T10:36:50.939Z,9.80
2018-03-24T10:39:19.657Z,9.97
2018-03-24T10:41:48.440Z,12.57
2018-03-24T10:44:17.098Z,10.70
2018-03-24T10:46:45.819Z,12.57
2018-03-24T10:49:14.440Z,13.40
2018-03-24T10:51:43.261Z,12.33
2018-03-24T10:54:11.796Z,13.13
2018-03-24T10:56:40.509Z,12.03
2018-03-24T10:59:09.161Z,12.53
2018-03-24T11:01:37.821Z,13.33
2018-03-24T11:04:06.494Z,13.50
2018-03-24T11:06:35.192Z,13.87
2018-03-24T11:09:04.017Z,14.17
2018-03-24T11:11:33.296Z,12.40
2018-03-24T11:14:02.061Z,13.50
2018-03-24T11:16:30.710Z,14.63
2018-03-24T11:18:59.363Z,13.63
2018-03-24T11:21:28.030Z,16.53
2018-03-24T11:23:56.619Z,15.23
2018-03-24T11:26:25.248Z,13.30
2018-03-24T11:28:54.094Z,18.80
2018-03-24T11:31:22.812Z,15.13
2018-03-24T11:33:51.512Z,12.47
2018-03-24T11:36:21.460Z,14.00
2018-03-24T11:38:50.184Z,14.03
2018-03-24T11:41:18.804Z,14.57
2018-03-24T11:43:47.446Z,11.97
2018-03-24T11:46:16.147Z,11.40
2018-03-24T11:48:44.969Z,11.43
2018-03-24T11:51:14.210Z,11.57
2018-03-24T11:53:46.948Z,11.67
2018-03-24T11:56:15.663Z,12.27
2018-03-24T11:58:44.476Z,12.60
2018-03-24T12:01:13.093Z,12.50
2018-03-24T12:03:41.817Z,12.67
2018-03-24T12:06:10.386Z,13.50
2018-03-24T12:08:39.046Z,13.23
2018-03-24T12:11:07.685Z,11.40
2018-03-24T12:13:36.237Z,11.27
2018-03-24T12:16:06.331Z,10.90
2018-03-24T12:18:35.051Z,13.50
2018-03-24T12:21:04.003Z,12.10
2018-03-24T12:23:32.671Z,12.20
2018-03-24T12:26:01.421Z,12.83
2018-03-24T12:28:30.058Z,13.70
2018-03-24T12:30:58.847Z,12.93
2018-03-24T12:33:27.427Z,14.07
2018-03-24T12:35:56.204Z,18.13
2018-03-24T12:38:24.927Z,12.63
2018-03-24T12:40:53.555Z,11.88
2018-03-24T12:43:22.276Z,11.97
2018-03-24T12:45:50.893Z,12.33
2018-03-24T12:48:19.617Z,11.38
2018-03-24T12:50:48.539Z,12.20
2018-03-24T12:53:17.266Z,12.57
2018-03-24T12:55:46.885Z,14.43
2018-03-24T12:58:15.559Z,13.43
2018-03-24T13:00:44.137Z,13.03
2018-03-24T13:03:12.950Z,13.80
2018-03-24T13:05:41.591Z,14.07
2018-03-24T13:08:10.294Z,14.67
2018-03-24T13:10:38.934Z,13.90
2018-03-24T13:13:07.739Z,12.83
2018-03-24T13:15:36.333Z,13.93
2018-03-24T13:18:05.109Z,13.40
2018-03-24T13:20:33.724Z,12.87
2018-03-24T13:23:02.393Z,15.05
2018-03-24T13:25:31.143Z,15.00
2018-03-24T13:27:59.827Z,13.60
2018-03-24T13:30:28.587Z,13.77
2018-03-24T13:32:57.319Z,13.15
2018-03-24T13:35:26.935Z,12.10
2018-03-24T13:37:55.658Z,14.23
2018-03-24T13:40:24.362Z,30.33
2018-03-24T13:42:53.021Z,14.68
2018-03-24T13:45:21.822Z,14.18
2018-03-24T13:47:50.544Z,11.90
2018-03-24T13:50:19.127Z,12.32
2018-03-24T13:52:48.692Z,11.20
2018-03-24T13:55:17.344Z,12.03
2018-03-24T13:57:46.134Z,12.50
2018-03-24T14:00:16.864Z,11.00
2018-03-24T14:02:45.563Z,12.40
2018-03-24T14:05:14.308Z,12.03
2018-03-24T14:07:43.867Z,11.57
2018-03-24T14:10:12.556Z,12.83
2018-03-24T14:12:41.380Z,12.55
2018-03-24T14:15:10.099Z,10.85
2018-03-24T14:17:38.823Z,12.43
2018-03-24T14:20:07.450Z,12.00
2018-03-24T14:22:36.142Z,12.00
2018-03-24T14:25:04.804Z,12.35
2018-03-24T14:27:33.421Z,11.98
2018-03-24T14:30:02.029Z,11.18
2018-03-24T14:32:31.733Z,11.93
2018-03-24T14:35:00.383Z,13.23
2018-03-24T14:37:28.997Z,12.05
2018-03-24T14:39:57.623Z,12.02
2018-03-24T14:42:26.248Z,10.80
2018-03-24T14:44:55.674Z,10.80
2018-03-24T14:47:25.068Z,10.35
2018-03-24T14:49:53.671Z,10.32
2018-03-24T14:52:22.217Z,11.50
2018-03-24T14:54:50.881Z,11.48
2018-03-24T14:57:19.479Z,10.75
2018-03-24T14:59:48.047Z,13.13
2018-03-24T15:02:17.285Z,14.73
2018-03-24T15:04:45.885Z,17.73
2018-03-24T15:07:14.456Z,14.50
2018-03-24T15:09:43.084Z,16.02
2018-03-24T15:12:11.643Z,16.17
2018-03-24T15:14:41.176Z,16.98
2018-03-24T15:17:09.786Z,16.80
2018-03-24T15:19:38.370Z,15.80
2018-03-24T15:22:07.097Z,12.23
2018-03-24T15:24:35.836Z,13.13
2018-03-24T15:27:04.441Z,13.25
2018-03-24T15:29:44.747Z,14.02
2018-03-24T15:32:25.065Z,21.00
2018-03-24T15:35:05.311Z,13.27
2018-03-24T15:37:33.874Z,13.20
2018-03-24T15:40:02.443Z,12.10
2018-03-24T15:42:31.751Z,12.02
2018-03-24T15:45:00.423Z,11.73
2018-03-24T15:47:29.037Z,13.65
2018-03-24T15:49:57.657Z,14.98
2018-03-24T15:52:26.208Z,13.80
2018-03-24T15:54:54.815Z,15.52
2018-03-24T15:57:23.402Z,13.93
2018-03-24T15:59:52.050Z,16.62
2018-03-24T16:02:20.675Z,15.98
2018-03-24T16:04:49.273Z,15.90
2018-03-24T16:07:17.962Z,16.60
2018-03-24T16:09:46.543Z,16.60
2018-03-24T16:12:15.107Z,15.75
2018-03-24T16:14:43.659Z,18.70
2018-03-24T16:17:12.315Z,16.10
2018-03-24T16:19:41.608Z,14.52
2018-03-24T16:22:10.239Z,14.75
2018-03-24T16:24:38.972Z,15.88
2018-03-24T16:27:07.590Z,16.05
2018-03-24T16:29:36.206Z,14.85
2018-03-24T16:32:05.027Z,16.42
2018-03-24T16:34:33.854Z,15.95
2018-03-24T16:37:02.470Z,17.20
2018-03-24T16:39:31.095Z,16.90
2018-03-24T16:41:59.671Z,15.57
2018-03-24T16:44:28.369Z,22.37
2018-03-24T16:46:56.963Z,17.15
2018-03-24T16:49:25.603Z,16.42
2018-03-24T16:51:54.301Z,16.75
2018-03-24T16:54:22.849Z,17.70
2018-03-24T16:56:51.442Z,18.25
2018-03-24T16:59:20.168Z,19.00
2018-03-24T17:01:48.739Z,18.17
2018-03-24T17:04:17.416Z,17.60
2018-03-24T17:06:45.970Z,19.05
2018-03-24T17:09:14.569Z,23.87
2018-03-24T17:11:43.191Z,21.65
2018-03-24T17:14:11.830Z,24.08
2018-03-24T17:16:40.718Z,30.92
2018-03-24T17:19:09.299Z,28.48
2018-03-24T17:21:37.971Z,29.10
2018-03-24T17:24:07.166Z,30.37
2018-03-24T17:26:35.743Z,36.10
2018-03-24T17:29:04.327Z,38.28
2018-03-24T17:31:32.917Z,41.00
2018-03-24T17:34:01.543Z,48.83
2018-03-24T17:36:30.155Z,51.10
2018-03-24T17:38:58.814Z,44.08
2018-03-24T17:41:27.538Z,44.25
2018-03-24T17:43:56.099Z,38.38
2018-03-24T17:46:24.678Z,45.12
2018-03-24T17:48:53.362Z,40.72
2018-03-24T17:51:22.021Z,44.83
2018-03-24T17:53:50.617Z,52.35
2018-03-24T17:56:20.170Z,54.38
2018-03-24T17:58:48.791Z,56.97
2018-03-24T18:01:17.468Z,57.95
2018-03-24T18:03:46.067Z,58.08
2018-03-24T18:06:14.633Z,56.30
2018-03-24T18:08:43.176Z,54.75
2018-03-24T18:11:11.758Z,47.28
2018-03-24T18:13:40.304Z,40.80
2018-03-24T18:16:08.888Z,44.35
2018-03-24T18:18:37.451Z,34.70
2018-03-24T18:21:06.182Z,33.67
2018-03-24T18:23:34.804Z,33.22
2018-03-24T18:26:03.340Z,29.67
2018-03-24T18:28:32.659Z,28.40
2018-03-24T18:31:01.349Z,30.20
2018-03-24T18:33:29.915Z,27.83
2018-03-24T18:35:58.615Z,28.23
2018-03-24T18:38:28.106Z,28.38
2018-03-24T18:40:56.658Z,28.10
2018-03-24T18:43:25.359Z,28.05
2018-03-24T18:45:53.972Z,28.90
2018-03-24T18:48:22.514Z,28.52
2018-03-24T18:50:51.353Z,29.23
2018-03-24T18:53:19.986Z,28.40
2018-03-24T18:55:48.691Z,29.17
2018-03-24T18:58:17.259Z,29.37
2018-03-24T19:00:45.830Z,27.23
2018-03-24T19:03:14.419Z,28.00
2018-03-24T19:05:43.245Z,29.27
2018-03-24T19:08:11.926Z,30.98
2018-03-24T19:10:40.453Z,28.75
2018-03-24T19:13:09.001Z,29.45
2018-03-24T19:15:37.601Z,28.87
2018-03-24T19:18:06.222Z,52.53
2018-03-24T19:20:34.798Z,36.95
2018-03-24T19:23:03.693Z,35.08
2018-03-24T19:25:32.274Z,35.95
2018-03-24T19:28:00.870Z,28.60
2018-03-24T19:30:29.463Z,28.75
2018-03-24T19:32:58.046Z,26.08
2018-03-24T19:35:26.613Z,30.55
2018-03-24T19:37:55.256Z,28.98
2018-03-24T19:40:23.880Z,43.87
2018-03-24T19:42:52.510Z,58.25
2018-03-24T19:45:21.132Z,50.25
2018-03-24T19:47:49.813Z,56.63
2018-03-24T19:50:18.354Z,48.90
2018-03-24T19:52:47.088Z,33.17
2018-03-24T19:55:16.331Z,30.15
2018-03-24T19:57:44.943Z,27.62
2018-03-24T20:00:13.601Z,28.48
2018-03-24T20:02:42.376Z,27.60
2018-03-24T20:05:11.002Z,26.05
2018-03-24T20:07:39.579Z,26.75
2018-03-24T20:10:08.199Z,27.15
2018-03-24T20:12:36.774Z,25.33
2018-03-24T20:15:05.405Z,26.70
2018-03-24T20:17:34.111Z,25.83
2018-03-24T20:20:02.651Z,27.27
2018-03-24T20:22:31.235Z,27.67
2018-03-24T20:24:59.867Z,29.30
2018-03-24T20:27:28.473Z,28.40
2018-03-24T20:29:57.211Z,29.52
2018-03-24T20:32:26.637Z,30.75
2018-03-24T20:34:55.179Z,31.92
2018-03-24T20:37:23.727Z,33.70
2018-03-24T20:39:52.410Z,34.92
2018-03-24T20:42:21.034Z,36.28
2018-03-24T20:44:49.638Z,58.35
2018-03-24T20:47:18.180Z,59.35
2018-03-24T20:49:46.892Z,64.43
2018-03-24T20:52:15.494Z,59.65
2018-03-24T20:54:44.023Z,52.47
2018-03-24T20:57:12.650Z,50.03
2018-03-24T20:59:41.284Z,53.20
2018-03-24T21:02:09.844Z,53.50
2018-03-24T21:04:38.982Z,59.90
2018-03-24T21:07:07.642Z,55.83
2018-03-24T21:09:36.239Z,49.05
2018-03-24T21:12:04.796Z,53.45
2018-03-24T21:14:33.528Z,50.72
2018-03-24T21:17:02.079Z,54.85
2018-03-24T21:19:30.608Z,46.30
2018-03-24T21:21:59.195Z,45.75
2018-03-24T21:24:27.740Z,42.00
2018-03-24T21:26:56.323Z,43.50
2018-03-24T21:29:24.940Z,46.30
2018-03-24T21:31:53.519Z,42.88
2018-03-24T21:34:22.066Z,43.78
2018-03-24T21:36:51.621Z,50.17
2018-03-24T21:39:20.166Z,50.80
2018-03-24T21:41:48.744Z,51.45
2018-03-24T21:44:17.407Z,63.78
2018-03-24T21:46:46.042Z,49.70
2018-03-24T21:49:14.588Z,51.58
2018-03-24T21:51:43.260Z,52.03
2018-03-24T21:54:11.826Z,54.70
2018-03-24T21:56:40.514Z,60.03
2018-03-24T21:59:09.046Z,56.00
2018-03-24T22:01:37.627Z,54.15
2018-03-24T22:04:06.335Z,63.72
2018-03-24T22:06:34.939Z,56.58
2018-03-24T22:09:04.240Z,56.08
2018-03-24T22:11:32.941Z,57.08
2018-03-24T22:14:01.491Z,54.30
2018-03-24T22:16:30.078Z,68.87
2018-03-24T22:18:58.764Z,130.80
2018-03-24T22:21:27.354Z,102.62
2018-03-24T22:23:55.928Z,64.28
2018-03-24T22:26:24.539Z,52.60
2018-03-24T22:28:53.095Z,48.05
2018-03-24T22:31:21.771Z,52.75
2018-03-24T22:33:51.688Z,51.50
2018-03-24T22:36:20.392Z,54.17
2018-03-24T22:38:50.160Z,53.90
2018-03-24T22:41:18.859Z,53.53
2018-03-24T22:43:47.413Z,52.25
2018-03-24T22:46:15.975Z,54.45
2018-03-24T22:48:44.577Z,49.20
2018-03-24T22:51:13.139Z,46.72
2018-03-24T22:53:42.409Z,50.35
2018-03-24T22:56:11.005Z,50.35
2018-03-24T22:58:40.431Z,46.95
2018-03-24T23:01:09.079Z,45.80
2018-03-24T23:03:37.656Z,44.10
2018-03-24T23:06:06.320Z,42.75
2018-03-24T23:08:34.870Z,46.50
2018-03-24T23:11:03.584Z,59.50
2018-03-24T23:13:32.138Z,57.47
2018-03-24T23:16:00.832Z,61.08
2018-03-24T23:18:29.975Z,62.97
2018-03-24T23:20:58.584Z,65.25
2018-03-24T23:23:30.423Z,55.75
2018-03-24T23:25:59.029Z,50.88
2018-03-24T23:28:28.510Z,47.88
2018-03-24T23:30:57.209Z,44.20
2018-03-24T23:33:25.766Z,43.15
2018-03-24T23:35:54.361Z,40.38
2018-03-24T23:38:22.926Z,38.83
2018-03-24T23:40:51.539Z,40.50
2018-03-24T23:43:20.894Z,37.13
2018-03-24T23:45:49.575Z,33.80
2018-03-24T23:48:18.191Z,33.25
2018-03-24T23:50:47.461Z,33.45
2018-03-24T23:53:16.142Z,33.22
2018-03-24T23:55:44.726Z,33.45
2018-03-24T23:58:13.279Z,34.38
